This is the latest recevied weather packets stored in our database for station/object KR8N. If no packets are shown the sender has not sent any weather packets the latest 10 day(s).
| Time | Temp. | Humidity | Pressure | Rain* | Wind** | Luminosity | Snow |
|---|---|---|---|---|---|---|---|
| 1777796284 | -0.56° C | 89% | 1020.1 hPa | 0 mm | - | 0 W/m² | - |
| 1777795980 | 0° C | 89% | 1020.1 hPa | 0 mm | - | 0 W/m² | - |
| 1777795676 | 0° C | 88% | 1020 hPa | 0 mm | - | 0 W/m² | - |
| 1777795374 | 0° C | 87% | 1019.9 hPa | 0 mm | - | 0 W/m² | - |
| 1777795069 | 0° C | 87% | 1020 hPa | 0 mm | - | 0 W/m² | - |
| 1777794766 | 0.56° C | 85% | 1020 hPa | 0 mm | - | 0 W/m² | - |
| 1777794462 | 0.56° C | 84% | 1019.9 hPa | 0 mm | - | 0 W/m² | - |
| 1777794157 | 0.56° C | 84% | 1020.1 hPa | 0 mm | - | 0 W/m² | - |
| 1777793854 | 1.11° C | 83% | 1019.7 hPa | 0 mm | - | 0 W/m² | - |
| 1777793552 | 1.11° C | 81% | 1019.9 hPa | 0 mm | - | 0 W/m² | - |
| 1777793250 | 1.67° C | 80% | 1019.7 hPa | 0 mm | - | 0 W/m² | - |
| 1777792946 | 1.67° C | 79% | 1019.9 hPa | 0 mm | - | 0 W/m² | - |
| 1777792643 | 1.67° C | 79% | 1019.7 hPa | 0 mm | - | 0 W/m² | - |
| 1777792340 | 2.22° C | 78% | 1019.6 hPa | 0 mm | - | 0 W/m² | - |
| 1777792036 | 2.22° C | 77% | 1019.6 hPa | 0 mm | - | 0 W/m² | - |
| 1777791735 | 2.22° C | 77% | 1019.6 hPa | 0 mm | - | 0 W/m² | - |
| 1777791433 | 2.78° C | 75% | 1019.6 hPa | 0 mm | - | 0 W/m² | - |
| 1777791129 | 2.78° C | 75% | 1019.9 hPa | 0 mm | - | 0 W/m² | - |
| 1777790826 | 2.78° C | 74% | 1019.5 hPa | 0 mm | - | 0 W/m² | - |
| 1777790524 | 2.78° C | 74% | 1019.6 hPa | 0 mm | - | 0 W/m² | - |
| 1777790220 | 3.33° C | 73% | 1019.4 hPa | 0 mm | - | 0 W/m² | - |
| 1777789920 | 2.78° C | 73% | 1019.7 hPa | 0 mm | - | 0 W/m² | - |
| 1777789617 | 3.33° C | 73% | 1019.5 hPa | 0 mm | - | 0 W/m² | - |
| 1777789315 | 3.33° C | 72% | 1019.4 hPa | 0 mm | - | 0 W/m² | - |
| 1777789012 | 3.33° C | 73% | 1019.6 hPa | 0 mm | - | 0 W/m² | - |
* Rain latest hour (hover to see other rain measurements)
** Current wind speed in m/s (hover to see current wind gust speed)